Time;durP1;ratioP1;P1;durP2;ratioP2;P2;SDS_P1;SDS_P2;PMS_P1;PMS_P2;Temp;Humidity;BMP_temperature;BMP_pressure;BME280_temperature;BME280_humidity;BME280_pressure;Samples;Min_cycle;Max_cycle;Signal;HPM_P1;HPM_P2
2022/11/30 00:00:10;;;;;;;22.27;9.70;;;;;;;4.33;56.07;95853.16;5041391;28;20081;-70
2022/11/30 00:02:35;;;;;;;26.83;14.05;;;;;;;4.48;57.10;95852.75;5041474;28;20101;-69
2022/11/30 00:05:00;;;;;;;24.13;11.95;;;;;;;4.32;57.19;95857.56;5041596;28;20089;-69
2022/11/30 00:07:26;;;;;;;22.52;11.13;;;;;;;3.92;57.41;95855.72;5041005;28;20135;-69
2022/11/30 00:09:51;;;;;;;26.23;13.48;;;;;;;4.24;57.52;95852.13;5040862;28;20100;-70
2022/11/30 00:12:17;;;;;;;26.08;12.77;;;;;;;4.11;57.06;95857.63;5040822;28;20096;-68
2022/11/30 00:14:42;;;;;;;25.70;12.48;;;;;;;3.90;57.07;95855.84;5041116;28;20113;-70
2022/11/30 00:17:07;;;;;;;25.85;12.15;;;;;;;4.14;57.41;95851.25;5040966;28;20470;-70
2022/11/30 00:19:33;;;;;;;24.42;12.50;;;;;;;3.93;56.84;95860.88;5041562;28;20072;-69
2022/11/30 00:21:58;;;;;;;20.60;11.82;;;;;;;4.11;56.67;95855.00;5038718;28;20105;-68
2022/11/30 00:24:23;;;;;;;24.23;11.23;;;;;;;4.10;56.40;95849.84;5038824;28;20534;-68
2022/11/30 00:26:49;;;;;;;26.10;14.07;;;;;;;4.24;56.21;95860.03;5037980;28;20097;-69
2022/11/30 00:29:14;;;;;;;22.00;11.50;;;;;;;4.09;56.62;95854.31;5039724;28;20513;-69
2022/11/30 00:31:40;;;;;;;29.42;14.77;;;;;;;4.14;56.77;95854.72;5039063;28;20065;-69
2022/11/30 00:34:05;;;;;;;23.55;13.30;;;;;;;3.99;57.46;95850.78;5040317;28;20128;-69
2022/11/30 00:36:30;;;;;;;27.73;13.15;;;;;;;4.12;56.59;95855.84;5040094;28;20097;-69
2022/11/30 00:38:56;;;;;;;26.65;13.05;;;;;;;3.77;57.24;95847.31;5040085;28;20163;-69
2022/11/30 00:41:21;;;;;;;27.60;12.95;;;;;;;3.77;57.28;95848.16;5038277;28;20088;-69
2022/11/30 00:43:47;;;;;;;18.23;8.70;;;;;;;3.57;57.72;95851.63;5041097;28;20073;-68
2022/11/30 00:46:12;;;;;;;26.58;11.32;;;;;;;3.44;59.40;95847.38;5044631;28;20534;-69
2022/11/30 00:48:38;;;;;;;24.45;12.52;;;;;;;3.52;59.21;95852.00;5046791;28;20103;-68
2022/11/30 00:51:04;;;;;;;24.15;12.07;;;;;;;3.68;58.08;95848.94;5047202;28;20168;-69
2022/11/30 00:53:29;;;;;;;20.42;8.73;;;;;;;3.56;58.26;95850.78;5045175;28;20105;-69
2022/11/30 00:55:55;;;;;;;23.95;12.20;;;;;;;3.34;59.10;95844.66;5047381;28;20150;-68
2022/11/30 00:58:20;;;;;;;23.10;11.75;;;;;;;3.29;58.72;95845.03;5044556;28;20097;-69
2022/11/30 01:00:46;;;;;;;19.98;9.30;;;;;;;3.06;59.52;95843.47;5046391;28;20305;-69
2022/11/30 01:03:11;;;;;;;19.63;10.15;;;;;;;2.94;60.42;95847.91;5045675;28;20108;-69
2022/11/30 01:05:37;;;;;;;18.75;9.13;;;;;;;2.89;61.04;95846.47;5046797;28;20509;-69
2022/11/30 01:08:03;;;;;;;15.95;7.63;;;;;;;2.62;61.30;95850.38;5047292;28;20101;-69
2022/11/30 01:10:29;;;;;;;19.38;8.10;;;;;;;2.50;62.40;95844.31;5040924;28;20101;-69
2022/11/30 01:12:54;;;;;;;13.55;7.25;;;;;;;2.45;62.45;95843.00;5046172;28;20095;-68
2022/11/30 01:15:20;;;;;;;19.48;8.75;;;;;;;2.48;62.87;95853.25;5045269;28;20109;-69
2022/11/30 01:17:45;;;;;;;19.60;10.02;;;;;;;2.62;62.20;95850.38;5047158;28;20101;-70
2022/11/30 01:20:11;;;;;;;17.08;9.65;;;;;;;2.68;61.12;95856.94;5048391;28;20542;-68
2022/11/30 01:22:36;;;;;;;21.35;11.85;;;;;;;2.92;61.04;95858.53;5044532;28;20117;-70
2022/11/30 01:25:02;;;;;;;25.67;13.18;;;;;;;3.73;59.42;95856.44;5045831;28;20074;-68
2022/11/30 01:27:27;;;;;;;26.63;14.20;;;;;;;4.08;58.48;95852.59;5045394;28;20556;-69
2022/11/30 01:29:53;;;;;;;21.38;13.13;;;;;;;3.97;58.86;95857.94;5046809;28;20113;-68
2022/11/30 01:32:18;;;;;;;23.90;13.35;;;;;;;4.11;58.21;95855.00;5043654;28;20127;-70
2022/11/30 01:34:44;;;;;;;19.92;11.48;;;;;;;4.11;57.15;95855.00;5045462;28;20121;-68
2022/11/30 01:37:09;;;;;;;28.48;12.90;;;;;;;4.15;57.76;95859.03;5046350;28;20426;-70
2022/11/30 01:39:34;;;;;;;17.77;10.50;;;;;;;4.31;57.42;95862.97;5047350;28;20088;-70
2022/11/30 01:42:00;;;;;;;26.02;12.73;;;;;;;4.59;56.09;95868.47;5045583;28;20108;-69
2022/11/30 01:44:26;;;;;;;21.30;12.77;;;;;;;4.83;55.92;95859.41;5044029;28;20097;-70
2022/11/30 01:46:58;;;;;;;51.30;11.52;;;;;;;5.20;55.04;95860.56;5045798;28;20124;-69
2022/11/30 01:49:35;;;;;;;36.20;12.40;;;;;;;5.06;55.20;95860.03;5046684;28;20073;-70
2022/11/30 01:52:03;;;;;;;214.98;12.98;;;;;;;5.29;53.24;95853.63;5045784;28;20077;-69
2022/11/30 01:54:32;;;;;;;36.53;12.57;;;;;;;5.31;54.24;95867.56;5045233;28;20578;-70
2022/11/30 01:57:04;;;;;;;36.28;10.65;;;;;;;5.08;54.41;95863.38;5025600;28;20083;-69
2022/11/30 01:59:29;;;;;;;103.22;14.90;;;;;;;5.39;54.19;95857.13;5041782;28;20109;-69
2022/11/30 02:01:55;;;;;;;95.95;13.02;;;;;;;5.43;53.83;95855.88;5038830;28;20109;-70
2022/11/30 02:04:23;;;;;;;67.18;13.90;;;;;;;5.66;52.67;95855.56;5042242;28;20077;-69
2022/11/30 02:06:49;;;;;;;76.13;13.52;;;;;;;5.63;53.21;95855.00;5041801;28;20128;-69
2022/11/30 02:09:15;;;;;;;34.65;10.73;;;;;;;5.33;53.09;95849.75;5042010;28;20077;-70
2022/11/30 02:11:40;;;;;;;83.38;14.15;;;;;;;5.65;53.15;95856.56;5041559;28;20074;-68
2022/11/30 02:14:28;;;;;;;61.35;11.38;;;;;;;5.09;53.93;95854.47;5040748;28;20140;-69
2022/11/30 02:17:31;;;;;;;46.03;11.07;;;;;;;5.01;54.53;95856.09;5042080;28;20189;-69
2022/11/30 02:20:15;;;;;;;32.67;11.00;;;;;;;4.83;54.53;95854.13;5042580;28;20112;-69
2022/11/30 02:23:00;;;;;;;31.73;9.70;;;;;;;4.93;54.30;95849.69;5038517;28;20124;-69
2022/11/30 02:25:58;;;;;;;33.45;10.52;;;;;;;4.86;54.86;95848.56;5010438;28;20553;-69
2022/11/30 02:28:41;;;;;;;47.60;10.75;;;;;;;4.50;55.63;95845.56;5017206;28;20092;-69
2022/11/30 02:31:09;;;;;;;26.90;11.05;;;;;;;4.51;55.61;95849.88;5041926;28;20209;-70
2022/11/30 02:33:34;;;;;;;80.47;12.73;;;;;;;4.71;55.38;95841.06;5025019;28;20101;-68
2022/11/30 02:35:59;;;;;;;30.42;8.32;;;;;;;4.43;56.07;95847.91;5024597;28;20570;-68
2022/11/30 02:38:26;;;;;;;21.15;7.15;;;;;;;3.97;56.61;95850.06;5043080;28;20120;-69
2022/11/30 02:40:51;;;;;;;34.60;7.32;;;;;;;3.86;57.98;95846.53;5023349;28;20170;-69
2022/11/30 02:43:18;;;;;;;42.00;8.80;;;;;;;3.81;57.98;95849.56;5042595;28;20097;-68
2022/11/30 02:45:50;;;;;;;75.18;10.60;;;;;;;4.12;57.49;95851.38;5042319;28;20536;-70
2022/11/30 02:48:18;;;;;;;32.75;8.70;;;;;;;3.87;58.31;95852.63;5041805;28;20534;-70
2022/11/30 02:50:52;;;;;;;153.75;10.70;;;;;;;4.69;55.63;95852.69;5024932;28;20098;-69
2022/11/30 02:53:17;;;;;;;40.20;9.07;;;;;;;4.38;56.68;95856.22;5041113;28;20116;-70
2022/11/30 02:55:43;;;;;;;23.95;9.27;;;;;;;4.29;57.40;95863.09;5024771;28;20434;-69
2022/11/30 02:58:08;;;;;;;31.15;9.48;;;;;;;4.33;56.74;95859.25;5042290;28;20112;-70
2022/11/30 03:00:33;;;;;;;36.05;9.60;;;;;;;4.45;56.95;95854.72;5039819;28;20749;-70
2022/11/30 03:02:59;;;;;;;24.60;9.25;;;;;;;4.52;56.67;95855.00;5042220;28;20105;-68
2022/11/30 03:05:24;;;;;;;30.73;9.38;;;;;;;4.31;56.80;95870.88;5041976;28;20112;-70
2022/11/30 03:07:50;;;;;;;27.85;8.68;;;;;;;4.29;56.92;95871.00;5042464;28;20078;-68
2022/11/30 03:10:15;;;;;;;43.95;10.57;;;;;;;4.57;56.34;95867.81;5037628;28;20363;-69
2022/11/30 03:12:40;;;;;;;49.55;9.93;;;;;;;4.77;56.27;95868.69;5042198;28;20104;-69
2022/11/30 03:15:06;;;;;;;48.70;8.98;;;;;;;4.41;56.60;95877.03;5041824;28;20691;-70
2022/11/30 03:17:31;;;;;;;67.43;8.70;;;;;;;4.37;57.21;95870.38;5042045;28;20160;-69
2022/11/30 03:19:57;;;;;;;54.85;8.50;;;;;;;4.32;57.62;95875.22;5042478;28;20089;-68
2022/11/30 03:22:22;;;;;;;77.72;9.95;;;;;;;4.12;57.53;95876.91;5038593;28;20105;-70
2022/11/30 03:24:48;;;;;;;31.27;7.82;;;;;;;3.91;57.81;95872.50;5042275;28;20077;-69
2022/11/30 03:27:13;;;;;;;42.28;8.88;;;;;;;3.76;58.25;95877.25;5042022;28;20097;-71
2022/11/30 03:29:38;;;;;;;39.97;7.93;;;;;;;3.70;58.60;95875.97;5042101;28;20093;-69
2022/11/30 03:32:04;;;;;;;67.25;8.45;;;;;;;3.68;59.06;95876.09;5040592;28;20593;-68
2022/11/30 03:34:29;;;;;;;89.38;10.35;;;;;;;3.88;59.14;95878.84;5040182;28;20121;-69
2022/11/30 03:36:55;;;;;;;53.88;6.57;;;;;;;3.65;58.77;95883.44;5042148;28;20077;-69
2022/11/30 03:39:20;;;;;;;37.53;8.13;;;;;;;3.56;59.59;95879.75;5041645;28;20102;-70
2022/11/30 03:41:46;;;;;;;34.10;7.63;;;;;;;3.58;59.07;95875.22;5041847;28;20180;-68
2022/11/30 03:44:11;;;;;;;43.47;7.93;;;;;;;3.75;59.16;95873.81;5041642;28;20526;-69
2022/11/30 03:46:36;;;;;;;45.40;6.97;;;;;;;3.65;59.21;95865.84;5040736;28;20105;-69
2022/11/30 03:49:02;;;;;;;22.75;6.95;;;;;;;3.49;58.99;95868.06;5041828;28;20092;-68
2022/11/30 03:51:27;;;;;;;24.85;7.60;;;;;;;3.60;58.91;95873.25;5041670;28;20105;-70
2022/11/30 03:53:52;;;;;;;38.17;7.25;;;;;;;3.49;60.03;95873.31;5041178;28;20108;-68
2022/11/30 03:56:18;;;;;;;18.00;4.32;;;;;;;3.16;60.41;95868.88;5041876;28;20188;-69
2022/11/30 03:58:43;;;;;;;10.35;6.00;;;;;;;3.04;60.68;95868.06;5041396;28;20458;-69
2022/11/30 04:01:16;;;;;;;20.75;6.32;;;;;;;2.97;60.37;95872.19;5040641;28;20081;-69
2022/11/30 04:03:42;;;;;;;17.15;6.57;;;;;;;3.16;60.75;95873.28;5039606;28;20077;-69
2022/11/30 04:06:08;;;;;;;20.33;7.50;;;;;;;3.02;61.82;95872.63;5039920;28;20105;-68
2022/11/30 04:08:34;;;;;;;23.95;5.38;;;;;;;3.06;61.41;95869.75;5041604;28;20081;-69
2022/11/30 04:11:00;;;;;;;99.07;9.18;;;;;;;3.39;61.35;95868.78;5040886;28;20193;-69
2022/11/30 04:13:25;;;;;;;48.75;8.45;;;;;;;3.76;59.60;95866.72;5040860;28;20661;-69
2022/11/30 04:15:51;;;;;;;29.95;6.82;;;;;;;3.55;60.17;95868.38;5041390;28;20150;-69
2022/11/30 04:18:17;;;;;;;35.05;8.40;;;;;;;3.55;59.68;95864.94;5041165;28;20144;-69
2022/11/30 04:20:42;;;;;;;19.25;6.88;;;;;;;3.39;59.96;95863.53;5040104;28;20169;-70
2022/11/30 04:23:08;;;;;;;41.80;8.40;;;;;;;3.68;60.04;95864.75;5040144;28;20097;-68
2022/11/30 04:25:36;;;;;;;16.65;7.88;;;;;;;3.61;59.84;95869.66;5040857;28;20097;-70
2022/11/30 04:28:01;;;;;;;37.88;7.53;;;;;;;4.03;59.37;95868.84;5040074;28;20097;-70
2022/11/30 04:30:27;;;;;;;66.85;7.82;;;;;;;4.02;59.19;95858.41;5040654;28;20101;-69
2022/11/30 04:32:52;;;;;;;14.95;6.20;;;;;;;3.76;59.11;95864.09;5041204;28;20573;-70
2022/11/30 04:35:17;;;;;;;17.80;5.93;;;;;;;4.01;58.88;95857.56;5040226;28;20477;-70
2022/11/30 04:37:43;;;;;;;45.08;7.68;;;;;;;3.91;58.77;95859.34;5040946;28;20105;-69
2022/11/30 04:40:08;;;;;;;17.08;6.15;;;;;;;3.51;59.65;95860.88;5041152;28;20093;-69
2022/11/30 04:42:34;;;;;;;15.73;5.97;;;;;;;3.33;59.72;95864.03;5040862;28;20100;-69
2022/11/30 04:44:59;;;;;;;22.38;6.50;;;;;;;3.35;59.94;95863.91;5041004;28;20389;-70
2022/11/30 04:47:25;;;;;;;14.45;4.95;;;;;;;3.23;60.36;95865.75;5040864;28;20089;-69
2022/11/30 04:49:50;;;;;;;19.90;7.78;;;;;;;3.31;61.09;95871.22;5040658;28;20203;-70
2022/11/30 04:52:15;;;;;;;17.08;7.05;;;;;;;3.48;59.48;95866.41;5041468;28;20519;-70
2022/11/30 04:54:41;;;;;;;17.35;6.85;;;;;;;3.76;59.81;95864.09;5040315;28;20291;-70
2022/11/30 04:57:06;;;;;;;31.40;7.65;;;;;;;4.01;59.38;95864.66;5040682;28;20127;-69
2022/11/30 04:59:32;;;;;;;17.42;7.13;;;;;;;3.94;59.42;95872.22;5039497;28;20127;-69
2022/11/30 05:01:57;;;;;;;26.13;8.10;;;;;;;4.66;57.02;95874.91;5038669;28;20105;-69
2022/11/30 05:04:22;;;;;;;29.45;8.20;;;;;;;4.77;57.32;95873.13;5040593;28;20081;-70
2022/11/30 05:06:48;;;;;;;35.03;9.55;;;;;;;4.93;57.30;95878.72;5040710;28;20415;-69
2022/11/30 05:09:13;;;;;;;41.92;9.48;;;;;;;5.09;55.08;95874.75;5040425;28;20838;-69
2022/11/30 05:11:39;;;;;;;37.17;8.45;;;;;;;5.02;57.11;95874.44;5040701;28;20082;-68
2022/11/30 05:14:04;;;;;;;26.85;9.48;;;;;;;5.35;55.38;95867.09;5040527;28;20105;-70
2022/11/30 05:16:29;;;;;;;42.33;8.75;;;;;;;5.34;56.21;95869.91;5040711;28;20097;-69
2022/11/30 05:18:55;;;;;;;114.75;9.52;;;;;;;5.51;53.21;95876.28;5040224;28;20196;-70
2022/11/30 05:21:20;;;;;;;88.75;10.45;;;;;;;5.69;54.60;95879.06;5039081;28;20430;-70
2022/11/30 05:23:47;;;;;;;30.58;9.18;;;;;;;5.75;53.94;95875.03;5040785;28;20077;-68
2022/11/30 05:26:13;;;;;;;169.35;10.05;;;;;;;5.68;52.64;95880.03;5040126;28;20106;-68
2022/11/30 05:28:39;;;;;;;252.25;9.52;;;;;;;5.65;52.33;95884.78;5040611;28;20092;-69
2022/11/30 05:31:04;;;;;;;63.95;9.10;;;;;;;5.86;54.21;95880.13;5040227;28;20590;-69
2022/11/30 05:33:30;;;;;;;95.95;9.05;;;;;;;5.94;53.55;95886.53;5039263;28;20578;-68
2022/11/30 05:35:55;;;;;;;256.95;10.57;;;;;;;5.16;52.68;95890.84;5042682;28;20111;-71
2022/11/30 05:38:21;;;;;;;65.47;8.43;;;;;;;5.69;55.93;95888.81;5044473;28;20409;-70
2022/11/30 05:40:46;;;;;;;198.93;8.60;;;;;;;5.79;54.15;95888.78;5042767;28;20081;-70
2022/11/30 05:43:12;;;;;;;135.30;8.20;;;;;;;5.81;54.98;95890.31;5044293;28;20097;-69
2022/11/30 05:45:37;;;;;;;80.00;6.97;;;;;;;5.79;55.06;95887.00;5043684;28;20121;-69
2022/11/30 05:48:03;;;;;;;118.80;8.02;;;;;;;6.08;53.90;95888.72;5044010;28;20080;-68
2022/11/30 05:50:28;;;;;;;71.18;8.63;;;;;;;6.30;52.84;95891.19;5043769;28;20159;-70
2022/11/30 05:52:55;;;;;;;35.22;6.85;;;;;;;6.18;54.31;95896.63;5044107;28;20089;-68
2022/11/30 05:55:21;;;;;;;14.90;6.13;;;;;;;6.14;53.99;95900.53;5043654;28;20110;-70
2022/11/30 05:57:46;;;;;;;52.20;7.80;;;;;;;6.29;53.30;95894.81;5043730;28;20096;-70
2022/11/30 06:00:12;;;;;;;55.75;7.07;;;;;;;6.30;53.11;95899.97;5043803;28;20139;-69
2022/11/30 06:02:38;;;;;;;53.03;7.75;;;;;;;6.49;52.45;95899.06;5043512;28;20101;-70
2022/11/30 06:05:04;;;;;;;35.47;7.72;;;;;;;6.57;52.19;95901.00;5043696;28;20414;-70
2022/11/30 06:07:29;;;;;;;22.55;7.35;;;;;;;6.41;53.38;95895.44;5043420;28;20105;-70
2022/11/30 06:09:54;;;;;;;34.28;6.70;;;;;;;6.22;53.33;95903.31;5043622;28;20105;-70
2022/11/30 06:12:20;;;;;;;33.92;6.47;;;;;;;5.86;53.84;95897.81;5042676;28;20535;-68
2022/11/30 06:14:45;;;;;;;66.57;6.93;;;;;;;5.71;54.11;95906.16;5043463;28;20118;-70
2022/11/30 06:17:10;;;;;;;24.55;6.95;;;;;;;6.06;53.24;95903.88;5042632;28;20081;-69
2022/11/30 06:19:36;;;;;;;33.38;7.28;;;;;;;5.92;53.59;95902.53;5043348;28;20093;-70
2022/11/30 06:22:01;;;;;;;31.92;6.88;;;;;;;5.96;53.43;95908.38;5037985;28;20117;-70
2022/11/30 06:24:27;;;;;;;60.72;7.20;;;;;;;5.82;53.77;95907.00;5043218;28;20505;-68
2022/11/30 06:26:52;;;;;;;64.43;8.00;;;;;;;5.94;53.28;95905.88;5042443;28;20120;-69
2022/11/30 06:29:17;;;;;;;30.83;6.60;;;;;;;5.73;53.61;95901.59;5043421;28;20139;-69
2022/11/30 06:31:43;;;;;;;47.35;7.05;;;;;;;5.76;53.77;95902.28;5042212;28;20073;-69
2022/11/30 06:34:08;;;;;;;39.53;6.95;;;;;;;5.18;54.45;95900.34;5041150;28;20125;-69
2022/11/30 06:36:34;;;;;;;33.13;6.78;;;;;;;5.18;54.66;95905.63;5042883;28;20157;-68
2022/11/30 06:38:59;;;;;;;26.23;6.75;;;;;;;5.09;54.50;95907.25;5042889;28;20109;-70
2022/11/30 06:41:25;;;;;;;33.60;6.95;;;;;;;5.38;54.29;95900.34;5037867;28;20077;-70
2022/11/30 06:43:50;;;;;;;33.80;6.72;;;;;;;5.55;54.35;95901.44;5040935;28;20554;-70
2022/11/30 06:46:16;;;;;;;50.95;6.93;;;;;;;5.37;54.23;95909.22;5041884;28;20174;-69
2022/11/30 06:48:41;;;;;;;29.20;6.97;;;;;;;5.05;54.80;95905.00;5042654;28;20367;-70
2022/11/30 06:51:07;;;;;;;31.67;6.80;;;;;;;5.22;54.72;95911.44;5041354;28;20626;-69
2022/11/30 06:53:33;;;;;;;39.28;7.15;;;;;;;4.99;55.01;95913.47;5042253;28;20592;-69
2022/11/30 06:56:02;;;;;;;23.95;6.70;;;;;;;5.06;55.13;95911.97;5042721;28;20089;-69
2022/11/30 06:58:27;;;;;;;18.85;6.70;;;;;;;5.04;55.02;95913.88;5041252;28;20557;-71
2022/11/30 07:00:52;;;;;;;33.08;6.70;;;;;;;4.93;55.16;95920.94;5042596;28;20160;-70
2022/11/30 07:03:18;;;;;;;29.77;7.18;;;;;;;4.78;55.75;95914.38;5039900;28;20128;-70
2022/11/30 07:05:44;;;;;;;23.90;6.82;;;;;;;4.70;56.34;95921.13;5041893;28;20446;-70
2022/11/30 07:08:10;;;;;;;34.78;7.00;;;;;;;4.59;56.36;95921.22;5042492;28;20077;-69
2022/11/30 07:10:43;;;;;;;36.97;6.30;;;;;;;4.54;56.25;95923.44;5039498;28;20101;-69
2022/11/30 07:13:12;;;;;;;33.50;6.90;;;;;;;4.63;56.38;95927.09;5041835;28;20101;-70
2022/11/30 07:15:40;;;;;;;33.05;6.93;;;;;;;4.60;56.17;95922.06;5029256;28;20125;-69
2022/11/30 07:18:06;;;;;;;36.55;6.88;;;;;;;4.45;56.50;95925.06;5039404;28;22388;-69
2022/11/30 07:20:32;;;;;;;33.70;6.10;;;;;;;4.31;57.07;95927.09;5039342;28;20085;-71
2022/11/30 07:26:04;;;;;;;51.50;7.78;;;;;;;4.82;56.00;95921.88;5034320;28;20203;-70
2022/11/30 07:28:26;;;;;;;23.23;5.88;;;;;;;4.52;56.84;95928.84;5042523;28;20173;-70
2022/11/30 07:30:51;;;;;;;19.77;5.65;;;;;;;4.50;56.93;95935.22;5040031;28;20097;-71
2022/11/30 07:33:17;;;;;;;39.97;6.78;;;;;;;4.74;56.82;95932.28;5042145;28;20529;-70
2022/11/30 07:35:42;;;;;;;30.45;6.15;;;;;;;4.50;56.58;95935.22;5041586;28;20128;-70
2022/11/30 07:38:08;;;;;;;99.50;7.50;;;;;;;5.11;55.23;95932.69;5041953;28;20505;-68
2022/11/30 07:40:33;;;;;;;41.33;6.07;;;;;;;4.73;56.52;95945.59;5041328;28;20084;-69
2022/11/30 07:42:58;;;;;;;38.80;6.22;;;;;;;4.55;56.65;95951.47;5038954;28;20109;-70
2022/11/30 07:45:24;;;;;;;55.90;7.38;;;;;;;5.00;55.72;95944.16;5040485;28;20446;-69
2022/11/30 07:47:49;;;;;;;30.33;6.70;;;;;;;5.02;56.07;95942.19;5040646;28;20592;-70
2022/11/30 07:50:15;;;;;;;66.13;6.80;;;;;;;5.25;54.64;95945.50;5040697;28;20113;-69
2022/11/30 07:52:40;;;;;;;24.95;6.22;;;;;;;5.05;55.53;95952.50;5036919;28;20089;-70
2022/11/30 07:55:06;;;;;;;35.08;6.18;;;;;;;5.01;55.92;95951.09;5037930;28;20128;-68
2022/11/30 07:57:32;;;;;;;26.08;6.65;;;;;;;5.02;55.78;95960.66;5039500;28;20152;-69
2022/11/30 07:59:57;;;;;;;28.65;6.10;;;;;;;4.75;56.30;95954.19;5040946;28;20530;-70
2022/11/30 08:02:23;;;;;;;41.92;6.10;;;;;;;4.56;56.12;95955.81;5040425;28;20105;-69
2022/11/30 08:04:49;;;;;;;27.20;6.45;;;;;;;4.66;56.47;95967.22;5040713;28;20489;-70
2022/11/30 08:07:14;;;;;;;56.10;6.13;;;;;;;5.13;55.27;95955.31;5040696;28;20644;-70
2022/11/30 08:09:40;;;;;;;65.78;6.30;;;;;;;5.16;54.96;95955.06;5040172;28;20101;-68
2022/11/30 08:12:06;;;;;;;33.95;5.55;;;;;;;5.26;54.97;95948.94;5041205;28;20135;-69
2022/11/30 08:14:31;;;;;;;57.78;6.30;;;;;;;5.32;54.81;95951.91;5039268;28;20620;-69
2022/11/30 08:16:56;;;;;;;26.80;6.30;;;;;;;5.51;54.73;95955.50;5039790;28;20101;-69
2022/11/30 08:19:22;;;;;;;44.67;5.65;;;;;;;5.05;55.49;95958.63;5039142;28;20101;-69
2022/11/30 08:21:47;;;;;;;29.30;6.20;;;;;;;4.99;55.51;95955.69;5031307;28;20128;-70
2022/11/30 08:24:13;;;;;;;56.45;6.38;;;;;;;5.11;55.75;95959.91;5030589;28;20077;-69
2022/11/30 08:26:38;;;;;;;66.88;6.43;;;;;;;5.33;55.30;95955.34;5030447;28;20800;-69
2022/11/30 08:29:03;;;;;;;21.35;5.55;;;;;;;5.06;55.20;95956.81;5020793;28;20123;-70
2022/11/30 08:31:31;;;;;;;27.15;5.18;;;;;;;5.40;54.00;95955.63;5023223;28;20286;-67
2022/11/30 08:34:09;;;;;;;42.22;5.20;;;;;;;5.50;53.78;95960.97;5019405;28;20102;-69
2022/11/30 08:36:35;;;;;;;;;;;;;;;5.35;53.94;95956.88;5019679;28;20132;-68
2022/11/30 08:39:01;;;;;;;23.10;6.17;;;;;;;4.87;55.27;95961.06;5010007;28;19991;-68
2022/11/30 08:41:27;;;;;;;36.10;6.15;;;;;;;5.31;54.54;95959.97;5009385;28;20081;-68
2022/11/30 08:43:52;;;;;;;19.23;6.45;;;;;;;5.31;54.73;95958.13;5019010;28;20097;-70
2022/11/30 08:46:19;;;;;;;38.63;6.60;;;;;;;5.23;54.92;95965.91;5013259;28;20173;-69
2022/11/30 08:48:45;;;;;;;23.80;6.15;;;;;;;5.38;54.27;95962.88;5007714;28;20086;-69
2022/11/30 08:51:11;;;;;;;20.63;6.50;;;;;;;5.40;54.53;95968.84;5006021;28;20104;-69
2022/11/30 08:53:37;;;;;;;32.65;7.13;;;;;;;5.07;55.08;95969.88;5007379;28;20251;-69
2022/11/30 08:56:04;;;;;;;29.45;5.60;;;;;;;5.28;54.43;95970.78;5005526;28;20086;-69
2022/11/30 08:58:30;;;;;;;31.02;7.45;;;;;;;5.21;55.11;95962.56;5006312;28;20586;-70
2022/11/30 09:01:13;;;;;;;20.17;6.68;;;;;;;5.08;55.45;95958.38;5006579;28;20086;-69
2022/11/30 09:03:39;;;;;;;33.75;7.93;;;;;;;5.10;55.59;95971.41;5039414;28;20547;-69
2022/11/30 09:06:09;;;;;;;25.42;7.22;;;;;;;4.85;56.04;95970.91;5031289;28;20494;-69
2022/11/30 09:08:35;;;;;;;31.88;6.97;;;;;;;4.63;56.32;95975.38;5025086;28;20086;-69
2022/11/30 09:11:11;;;;;;;43.55;7.70;;;;;;;4.55;56.55;95980.47;5022444;28;20600;-70
2022/11/30 09:13:37;;;;;;;13.55;6.47;;;;;;;4.41;56.78;95982.50;5019947;28;20501;-68
2022/11/30 09:16:03;;;;;;;18.92;6.45;;;;;;;4.52;56.36;95980.75;5024971;28;20093;-70
2022/11/30 09:18:28;;;;;;;17.38;7.05;;;;;;;4.40;56.84;95985.25;5027021;28;20178;-68
2022/11/30 09:20:59;;;;;;;19.40;7.88;;;;;;;4.39;57.29;95984.41;5032440;28;20131;-68
2022/11/30 09:23:25;;;;;;;62.65;10.40;;;;;;;4.90;56.40;95981.88;5010173;28;20164;-69
2022/11/30 09:25:57;;;;;;;24.45;8.13;;;;;;;4.82;57.09;95979.06;5007490;28;20110;-69
2022/11/30 09:28:23;;;;;;;18.15;7.20;;;;;;;4.38;57.01;95988.03;5013449;28;20074;-69
2022/11/30 09:30:48;;;;;;;34.45;9.00;;;;;;;4.55;57.21;95985.75;5009314;28;20098;-70
2022/11/30 09:33:14;;;;;;;35.03;7.70;;;;;;;4.84;56.44;95985.88;5013686;28;20636;-68
2022/11/30 09:35:39;;;;;;;22.92;5.80;;;;;;;4.61;57.17;95985.25;5015356;28;20135;-69
2022/11/30 09:38:05;;;;;;;21.73;8.20;;;;;;;4.65;56.62;95984.00;5011886;28;20114;-68
2022/11/30 09:40:30;;;;;;;20.10;7.72;;;;;;;4.77;56.48;95978.66;5009602;28;20085;-68
2022/11/30 09:43:21;;;;;;;31.85;10.35;;;;;;;4.90;56.25;95975.78;4994019;28;20102;-69
2022/11/30 09:45:53;;;;;;;22.52;10.27;;;;;;;4.90;56.97;95971.31;5009755;28;20098;-70
2022/11/30 09:48:28;;;;;;;10.77;6.28;;;;;;;4.75;56.53;95972.66;4996310;28;20399;-69
2022/11/30 09:50:53;;;;;;;29.27;8.82;;;;;;;4.58;56.93;95977.59;5013368;28;20468;-69
2022/11/30 09:53:24;;;;;;;26.17;8.32;;;;;;;4.73;56.60;95972.78;5006355;28;20733;-69
2022/11/30 09:55:49;;;;;;;18.98;10.32;;;;;;;4.69;56.86;95984.56;5006603;28;20098;-70
2022/11/30 09:58:29;;;;;;;16.88;10.25;;;;;;;4.88;56.94;95975.91;5015275;28;20102;-68
2022/11/30 10:00:54;;;;;;;20.20;10.25;;;;;;;4.79;57.08;95976.69;4997433;28;20327;-69
2022/11/30 10:03:21;;;;;;;18.45;9.02;;;;;;;4.64;56.76;95986.78;5005829;28;20758;-68
2022/11/30 10:05:59;;;;;;;22.50;10.18;;;;;;;4.47;56.89;95989.06;5030801;28;20114;-69
2022/11/30 10:08:48;;;;;;;24.75;9.82;;;;;;;4.48;57.23;95987.25;4993892;28;20608;-69
2022/11/30 10:11:13;;;;;;;;;;;;;;;4.65;57.29;95983.16;5019636;28;20554;-68
2022/11/30 10:13:39;;;;;;;46.20;9.87;;;;;;;5.00;57.00;95971.38;5013266;28;20103;-69
2022/11/30 10:16:16;;;;;;;62.90;7.22;;;;;;;4.83;55.41;95980.78;5005816;28;20114;-69
2022/11/30 10:19:05;;;;;;;38.38;13.45;;;;;;;5.21;55.98;95978.41;5011992;28;20102;-69
2022/11/30 10:21:43;;;;;;;24.38;11.70;;;;;;;5.33;56.09;95984.41;4993494;28;20681;-69
2022/11/30 10:24:30;;;;;;;85.10;12.00;;;;;;;5.27;54.28;95977.84;5008592;28;20538;-69
2022/11/30 10:26:56;;;;;;;178.77;11.05;;;;;;;5.65;54.96;95974.59;5017103;28;20133;-69
2022/11/30 10:29:32;;;;;;;75.63;10.30;;;;;;;5.57;53.19;95983.19;5039295;28;20496;-68
2022/11/30 10:31:58;;;;;;;33.75;10.90;;;;;;;5.52;55.80;95980.13;5038623;28;20104;-69
2022/11/30 10:34:31;;;;;;;123.30;8.85;;;;;;;5.79;53.35;95983.91;5041726;28;20550;-69
2022/11/30 10:37:08;;;;;;;40.88;11.82;;;;;;;5.92;54.79;95981.00;5023714;28;20971;-68
2022/11/30 10:39:40;;;;;;;30.77;9.43;;;;;;;5.91;54.44;95984.63;5041418;28;20101;-69
2022/11/30 10:42:08;;;;;;;34.22;8.80;;;;;;;5.63;54.00;95980.00;5039672;28;20132;-69
2022/11/30 10:44:38;;;;;;;40.33;12.43;;;;;;;5.65;54.30;95979.88;5040656;28;20397;-69
2022/11/30 10:47:04;;;;;;;32.80;9.05;;;;;;;5.36;54.33;95981.50;5023696;28;20630;-68
2022/11/30 10:49:29;;;;;;;43.63;9.85;;;;;;;5.44;54.77;95976.38;5025759;28;20181;-70
2022/11/30 10:52:01;;;;;;;69.22;13.93;;;;;;;5.98;54.13;95975.97;5037974;28;20073;-70
2022/11/30 10:54:28;;;;;;;51.58;12.02;;;;;;;5.79;54.07;95971.53;5039325;28;20151;-70
2022/11/30 10:56:54;;;;;;;24.33;10.05;;;;;;;5.60;54.05;95969.72;5022860;28;20171;-69
2022/11/30 10:59:24;;;;;;;17.55;10.45;;;;;;;5.53;53.85;95972.06;5021236;28;20116;-70
2022/11/30 11:01:52;;;;;;;33.70;11.50;;;;;;;5.44;54.26;95967.63;5005824;28;20197;-69
2022/11/30 11:04:21;;;;;;;79.00;13.10;;;;;;;5.56;54.64;95970.97;5005907;28;20078;-70
2022/11/30 11:07:16;;;;;;;29.17;10.43;;;;;;;5.58;53.94;95977.78;5012484;28;20101;-70
2022/11/30 11:09:47;;;;;;;242.85;11.25;;;;;;;5.81;52.59;95972.22;4999564;28;20506;-68
2022/11/30 11:12:33;;;;;;;41.53;9.27;;;;;;;5.49;54.12;95968.03;5007135;28;20086;-69
2022/11/30 11:15:27;;;;;;;94.28;11.20;;;;;;;5.33;54.33;95971.19;5008346;28;20124;-69
2022/11/30 11:17:53;;;;;;;26.73;10.98;;;;;;;4.87;55.07;95970.78;4995476;28;20642;-69
2022/11/30 11:20:35;;;;;;;36.25;10.05;;;;;;;4.77;55.33;95966.31;5007617;28;20318;-69
2022/11/30 11:23:01;;;;;;;22.42;10.05;;;;;;;4.62;55.84;95973.72;5010543;28;20105;-70
2022/11/30 11:25:36;;;;;;;14.77;9.13;;;;;;;4.44;56.18;95976.97;5009879;28;20073;-69
2022/11/30 11:28:14;;;;;;;29.25;14.13;;;;;;;4.66;56.79;95975.13;4987788;28;20576;-68
2022/11/30 11:30:39;;;;;;;38.75;14.38;;;;;;;4.76;56.90;95972.53;5002523;28;20539;-69
2022/11/30 11:33:11;;;;;;;92.97;13.82;;;;;;;5.28;54.09;95973.41;5006910;28;20078;-69
2022/11/30 11:35:49;;;;;;;48.70;13.50;;;;;;;5.23;54.72;95973.81;5020213;28;20164;-70